Time,TemperatureF,DewpointF,PressureIn,WindDirection,WindDirectionDegrees,WindSpeedMPH,WindSpeedGustMPH,Humidity,HourlyPrecipIn,Conditions,Clouds,dailyrainin,SoftwareType,DateUTC
2014-01-06 00:00:00,-7.2,-15.9,30.19,WNW,292,13.0,13.0,65,0.00,,,0.00,Wunderground v.1.15,2014-01-06 06:00:00,
2014-01-06 00:06:00,-7.5,-16.2,30.19,WNW,283,13.0,14.0,65,0.00,,,0.00,Wunderground v.1.15,2014-01-06 06:06:00,
2014-01-06 00:12:00,-7.5,-16.2,30.19,WNW,301,13.0,17.0,65,0.00,,,0.00,Wunderground v.1.15,2014-01-06 06:12:00,
2014-01-06 00:18:00,-7.9,-16.5,30.19,WNW,296,12.0,17.0,65,0.00,,,0.00,Wunderground v.1.15,2014-01-06 06:18:00,
2014-01-06 00:24:00,-8.1,-16.7,30.19,WNW,298,13.0,14.0,65,0.00,,,0.00,Wunderground v.1.15,2014-01-06 06:24:00,
2014-01-06 00:30:00,-8.3,-16.6,30.19,WNW,300,14.0,14.0,66,0.00,,,0.00,Wunderground v.1.15,2014-01-06 06:30:00,
2014-01-06 00:36:00,-8.5,-17.1,30.19,WNW,293,13.0,14.0,65,0.00,,,0.00,Wunderground v.1.15,2014-01-06 06:36:00,
2014-01-06 00:42:00,-8.7,-17.3,30.19,WNW,286,12.0,17.0,65,0.00,,,0.00,Wunderground v.1.15,2014-01-06 06:42:00,
2014-01-06 00:48:00,-8.9,-17.2,30.20,WNW,288,13.0,17.0,66,0.00,,,0.00,Wunderground v.1.15,2014-01-06 06:48:00,
2014-01-06 00:54:00,-9.0,-17.3,30.20,WNW,292,13.0,20.0,66,0.00,,,0.00,Wunderground v.1.15,2014-01-06 06:54:00,
2014-01-06 01:00:00,-9.0,-17.3,30.20,WNW,298,14.0,14.0,66,0.00,,,0.00,Wunderground v.1.15,2014-01-06 07:00:00,
2014-01-06 01:06:00,-9.1,-17.4,30.20,NW,314,14.0,15.0,66,0.00,,,0.00,Wunderground v.1.15,2014-01-06 07:06:00,
2014-01-06 01:12:00,-9.3,-17.6,30.20,NW,306,14.0,21.0,66,0.00,,,0.00,Wunderground v.1.15,2014-01-06 07:12:00,
2014-01-06 01:18:00,-9.3,-17.6,30.20,WNW,292,14.0,21.0,66,0.00,,,0.00,Wunderground v.1.15,2014-01-06 07:18:00,
2014-01-06 01:23:00,-9.5,-18.1,30.20,WNW,299,14.0,16.0,65,0.00,,,0.00,Wunderground v.1.15,2014-01-06 07:23:00,
2014-01-06 01:30:00,-9.6,-18.2,30.21,WNW,302,13.0,13.0,65,0.00,,,0.00,Wunderground v.1.15,2014-01-06 07:30:00,
2014-01-06 01:36:00,-9.7,-18.0,30.21,WNW,298,13.0,15.0,66,0.00,,,0.00,Wunderground v.1.15,2014-01-06 07:36:00,
2014-01-06 01:42:00,-10.2,-18.2,30.21,WNW,292,13.0,13.0,67,0.00,,,0.00,Wunderground v.1.15,2014-01-06 07:42:00,
2014-01-06 01:48:00,-10.7,-18.3,30.21,WNW,285,11.0,13.0,68,0.00,,,0.00,Wunderground v.1.15,2014-01-06 07:48:00,
2014-01-06 01:54:00,-10.9,-18.5,30.21,WNW,295,12.0,15.0,68,0.00,,,0.00,Wunderground v.1.15,2014-01-06 07:54:00,
2014-01-06 02:00:00,-11.2,-18.8,30.22,WNW,292,12.0,12.0,68,0.00,,,0.00,Wunderground v.1.15,2014-01-06 08:00:00,
2014-01-06 02:06:00,-11.5,-19.1,30.21,West,281,10.0,12.0,68,0.00,,,0.00,Wunderground v.1.15,2014-01-06 08:06:00,
2014-01-06 02:12:00,-11.6,-19.2,30.22,WNW,288,11.0,13.0,68,0.00,,,0.00,Wunderground v.1.15,2014-01-06 08:12:00,
2014-01-06 02:18:00,-11.6,-19.2,30.22,WNW,299,11.0,16.0,68,0.00,,,0.00,Wunderground v.1.15,2014-01-06 08:18:00,
2014-01-06 02:24:00,-11.5,-19.1,30.22,WNW,288,13.0,13.0,68,0.00,,,0.00,Wunderground v.1.15,2014-01-06 08:24:00,
2014-01-06 02:30:00,-11.7,-19.6,30.22,WNW,298,13.0,17.0,67,0.00,,,0.00,Wunderground v.1.15,2014-01-06 08:30:00,
2014-01-06 02:36:00,-11.6,-19.5,30.23,West,281,12.0,17.0,67,0.00,,,0.00,Wunderground v.1.15,2014-01-06 08:36:00,
2014-01-06 02:42:00,-11.7,-19.6,30.23,WNW,283,12.0,16.0,67,0.00,,,0.00,Wunderground v.1.15,2014-01-06 08:42:00,
2014-01-06 02:48:00,-11.7,-19.6,30.23,WNW,298,13.0,16.0,67,0.00,,,0.00,Wunderground v.1.15,2014-01-06 08:48:00,
2014-01-06 02:54:00,-11.9,-19.8,30.23,West,281,12.0,12.0,67,0.00,,,0.00,Wunderground v.1.15,2014-01-06 08:54:00,
2014-01-06 03:00:00,-11.9,-19.8,30.23,WNW,283,12.0,12.0,67,0.00,,,0.00,Wunderground v.1.15,2014-01-06 09:00:00,
2014-01-06 03:06:00,-12.4,-20.6,30.23,West,281,11.0,12.0,66,0.00,,,0.00,Wunderground v.1.15,2014-01-06 09:06:00,
2014-01-06 03:12:00,-12.7,-20.6,30.23,WNW,294,10.0,10.0,67,0.00,,,0.00,Wunderground v.1.15,2014-01-06 09:12:00,
2014-01-06 03:18:00,-12.9,-20.7,30.23,West,280,10.0,12.0,67,0.00,,,0.00,Wunderground v.1.15,2014-01-06 09:18:00,
2014-01-06 03:24:00,-12.9,-20.7,30.23,West,279,11.0,13.0,67,0.00,,,0.00,Wunderground v.1.15,2014-01-06 09:24:00,
2014-01-06 03:30:00,-13.2,-21.0,30.23,WNW,288,10.0,10.0,67,0.00,,,0.00,Wunderground v.1.15,2014-01-06 09:30:00,
2014-01-06 03:36:00,-13.4,-20.9,30.23,WNW,287,10.0,14.0,68,0.00,,,0.00,Wunderground v.1.15,2014-01-06 09:36:00,
2014-01-06 03:42:00,-13.5,-21.0,30.23,WNW,288,11.0,11.0,68,0.00,,,0.00,Wunderground v.1.15,2014-01-06 09:42:00,
2014-01-06 03:48:00,-13.8,-21.3,30.23,West,279,10.0,13.0,68,0.00,,,0.00,Wunderground v.1.15,2014-01-06 09:48:00,
2014-01-06 03:54:00,-14.0,-21.5,30.23,West,274,11.0,14.0,68,0.00,,,0.00,Wunderground v.1.15,2014-01-06 09:54:00,
2014-01-06 04:00:00,-14.1,-21.6,30.23,West,273,13.0,13.0,68,0.00,,,0.00,Wunderground v.1.15,2014-01-06 10:00:00,
2014-01-06 04:06:00,-14.2,-21.7,30.24,West,280,13.0,16.0,68,0.00,,,0.00,Wunderground v.1.15,2014-01-06 10:06:00,
2014-01-06 04:11:00,-14.2,-21.7,30.24,WNW,287,14.0,18.0,68,0.00,,,0.00,Wunderground v.1.15,2014-01-06 10:11:00,
2014-01-06 04:18:00,-14.6,-22.1,30.24,West,281,13.0,18.0,68,0.00,,,0.00,Wunderground v.1.15,2014-01-06 10:18:00,
2014-01-06 04:24:00,-14.7,-22.2,30.24,WNW,284,13.0,17.0,68,0.00,,,0.00,Wunderground v.1.15,2014-01-06 10:24:00,
2014-01-06 04:30:00,-14.9,-22.4,30.24,West,273,13.0,13.0,68,0.00,,,0.00,Wunderground v.1.15,2014-01-06 10:30:00,
2014-01-06 04:36:00,-15.0,-22.5,30.24,West,275,13.0,16.0,68,0.00,,,0.00,Wunderground v.1.15,2014-01-06 10:36:00,
2014-01-06 04:42:00,-15.1,-22.6,30.24,WNW,282,13.0,19.0,68,0.00,,,0.00,Wunderground v.1.15,2014-01-06 10:42:00,
2014-01-06 04:48:00,-15.1,-22.6,30.24,WNW,292,13.0,19.0,68,0.00,,,0.00,Wunderground v.1.15,2014-01-06 10:48:00,
2014-01-06 04:54:00,-15.2,-22.7,30.24,WNW,284,14.0,17.0,68,0.00,,,0.00,Wunderground v.1.15,2014-01-06 10:54:00,
2014-01-06 05:00:00,-15.3,-23.1,30.25,West,275,14.0,14.0,67,0.00,,,0.00,Wunderground v.1.15,2014-01-06 11:00:00,
2014-01-06 05:06:00,-15.5,-23.2,30.25,WNW,288,13.0,15.0,67,0.00,,,0.00,Wunderground v.1.15,2014-01-06 11:06:00,
2014-01-06 05:12:00,-15.6,-23.3,30.25,WNW,286,13.0,13.0,67,0.00,,,0.00,Wunderground v.1.15,2014-01-06 11:12:00,
2014-01-06 05:18:00,-15.8,-23.5,30.25,West,275,12.0,15.0,67,0.00,,,0.00,Wunderground v.1.15,2014-01-06 11:18:00,
2014-01-06 05:24:00,-16.0,-23.7,30.25,WNW,288,11.0,12.0,67,0.00,,,0.00,Wunderground v.1.15,2014-01-06 11:24:00,
2014-01-06 05:30:00,-16.2,-23.9,30.25,WNW,290,12.0,14.0,67,0.00,,,0.00,Wunderground v.1.15,2014-01-06 11:30:00,
2014-01-06 05:36:00,-16.3,-23.7,30.25,WNW,290,12.0,14.0,68,0.00,,,0.00,Wunderground v.1.15,2014-01-06 11:36:00,
2014-01-06 05:42:00,-16.5,-23.9,30.26,WNW,296,13.0,14.0,68,0.00,,,0.00,Wunderground v.1.15,2014-01-06 11:42:00,
2014-01-06 05:48:00,-16.7,-24.1,30.25,WNW,295,12.0,14.0,68,0.00,,,0.00,Wunderground v.1.15,2014-01-06 11:48:00,
2014-01-06 05:54:00,-16.8,-24.2,30.26,West,275,12.0,15.0,68,0.00,,,0.00,Wunderground v.1.15,2014-01-06 11:54:00,
2014-01-06 06:00:00,-16.9,-24.3,30.26,WNW,291,13.0,16.0,68,0.00,,,0.00,Wunderground v.1.15,2014-01-06 12:00:00,
2014-01-06 06:06:00,-16.9,-24.3,30.26,West,280,14.0,18.0,68,0.00,,,0.00,Wunderground v.1.15,2014-01-06 12:06:00,
2014-01-06 06:12:00,-17.0,-24.7,30.26,WNW,289,13.0,15.0,67,0.00,,,0.00,Wunderground v.1.15,2014-01-06 12:12:00,
2014-01-06 06:18:00,-17.2,-24.9,30.26,WNW,283,12.0,15.0,67,0.00,,,0.00,Wunderground v.1.15,2014-01-06 12:18:00,
2014-01-06 06:24:00,-17.4,-25.1,30.26,West,280,12.0,12.0,67,0.00,,,0.00,Wunderground v.1.15,2014-01-06 12:24:00,
2014-01-06 06:30:00,-17.3,-25.3,30.27,West,279,12.0,14.0,66,0.00,,,0.00,Wunderground v.1.15,2014-01-06 12:30:00,
2014-01-06 06:36:00,-17.6,-25.5,30.26,West,275,12.0,14.0,66,0.00,,,0.00,Wunderground v.1.15,2014-01-06 12:36:00,
2014-01-06 06:42:00,-17.6,-25.5,30.27,WNW,296,12.0,16.0,66,0.00,,,0.00,Wunderground v.1.15,2014-01-06 12:42:00,
2014-01-06 06:48:00,-17.6,-25.5,30.27,West,267,13.0,16.0,66,0.00,,,0.00,Wunderground v.1.15,2014-01-06 12:48:00,
2014-01-06 06:54:00,-17.6,-25.5,30.28,WNW,283,12.0,13.0,66,0.00,,,0.00,Wunderground v.1.15,2014-01-06 12:54:00,
2014-01-06 07:00:00,-17.7,-25.9,30.27,West,281,13.0,13.0,65,0.00,,,0.00,Wunderground v.1.15,2014-01-06 13:00:00,
2014-01-06 07:06:00,-17.8,-26.0,30.28,WNW,298,12.0,13.0,65,0.00,,,0.00,Wunderground v.1.15,2014-01-06 13:06:00,
2014-01-06 07:12:00,-18.0,-26.2,30.28,West,269,12.0,12.0,65,0.00,,,0.00,Wunderground v.1.15,2014-01-06 13:12:00,
2014-01-06 07:18:00,-18.2,-26.4,30.28,WNW,290,12.0,12.0,65,0.00,,,0.00,Wunderground v.1.15,2014-01-06 13:18:00,
2014-01-06 07:24:00,-18.3,-26.5,30.29,West,264,12.0,18.0,65,0.00,,,0.00,Wunderground v.1.15,2014-01-06 13:24:00,
2014-01-06 07:30:00,-18.4,-26.6,30.29,WNW,288,13.0,13.0,65,0.00,,,0.00,Wunderground v.1.15,2014-01-06 13:30:00,
2014-01-06 07:36:00,-18.6,-26.8,30.29,WNW,283,11.0,13.0,65,0.00,,,0.00,Wunderground v.1.15,2014-01-06 13:36:00,
2014-01-06 07:42:00,-18.5,-26.7,30.29,West,281,12.0,12.0,65,0.00,,,0.00,Wunderground v.1.15,2014-01-06 13:42:00,
2014-01-06 07:48:00,-18.7,-26.9,30.30,West,281,11.0,13.0,65,0.00,,,0.00,Wunderground v.1.15,2014-01-06 13:48:00,
2014-01-06 07:54:00,-18.7,-26.9,30.29,West,281,12.0,14.0,65,0.00,,,0.00,Wunderground v.1.15,2014-01-06 13:54:00,
2014-01-06 08:00:00,-18.7,-26.9,30.30,West,278,12.0,12.0,65,0.00,,,0.00,Wunderground v.1.15,2014-01-06 14:00:00,
2014-01-06 08:06:00,-18.7,-26.9,30.30,WNW,283,13.0,13.0,65,0.00,,,0.00,Wunderground v.1.15,2014-01-06 14:06:00,
2014-01-06 08:12:00,-18.7,-26.9,30.30,WNW,286,13.0,13.0,65,0.00,,,0.00,Wunderground v.1.15,2014-01-06 14:12:00,
2014-01-06 08:18:00,-18.7,-26.9,30.30,WNW,289,13.0,16.0,65,0.00,,,0.00,Wunderground v.1.15,2014-01-06 14:18:00,
2014-01-06 08:24:00,-18.5,-26.7,30.30,West,280,14.0,16.0,65,0.00,,,0.00,Wunderground v.1.15,2014-01-06 14:24:00,
2014-01-06 08:30:00,-18.4,-26.6,30.30,WNW,286,14.0,14.0,65,0.00,,,0.00,Wunderground v.1.15,2014-01-06 14:30:00,
2014-01-06 08:36:00,-18.3,-26.5,30.30,WNW,292,13.0,15.0,65,0.00,,,0.00,Wunderground v.1.15,2014-01-06 14:36:00,
2014-01-06 08:42:00,-18.3,-26.5,30.31,WNW,288,12.0,13.0,65,0.00,,,0.00,Wunderground v.1.15,2014-01-06 14:42:00,
2014-01-06 08:47:00,-18.3,-26.5,30.31,WNW,292,12.0,23.0,65,0.00,,,0.00,Wunderground v.1.15,2014-01-06 14:47:00,
2014-01-06 08:54:00,-18.3,-26.5,30.31,WNW,293,13.0,19.0,65,0.00,,,0.00,Wunderground v.1.15,2014-01-06 14:54:00,
2014-01-06 09:00:00,-18.2,-26.4,30.32,West,281,12.0,16.0,65,0.00,,,0.00,Wunderground v.1.15,2014-01-06 15:00:00,
2014-01-06 09:06:00,-18.1,-26.3,30.31,West,281,13.0,16.0,65,0.00,,,0.00,Wunderground v.1.15,2014-01-06 15:06:00,
2014-01-06 09:12:00,-18.0,-26.5,30.32,WNW,282,13.0,16.0,64,0.00,,,0.00,Wunderground v.1.15,2014-01-06 15:12:00,
2014-01-06 09:18:00,-18.0,-26.5,30.32,WNW,290,13.0,16.0,64,0.00,,,0.00,Wunderground v.1.15,2014-01-06 15:18:00,
2014-01-06 09:24:00,-17.9,-26.4,30.32,WNW,298,13.0,18.0,64,0.00,,,0.00,Wunderground v.1.15,2014-01-06 15:24:00,
2014-01-06 09:30:00,-17.8,-26.6,30.32,WNW,284,14.0,14.0,63,0.00,,,0.00,Wunderground v.1.15,2014-01-06 15:30:00,
2014-01-06 09:36:00,-17.7,-26.5,30.32,West,278,12.0,14.0,63,0.00,,,0.00,Wunderground v.1.15,2014-01-06 15:36:00,
2014-01-06 09:42:00,-17.7,-26.5,30.32,WNW,287,13.0,16.0,63,0.00,,,0.00,Wunderground v.1.15,2014-01-06 15:42:00,
2014-01-06 09:48:00,-17.6,-26.4,30.33,West,269,13.0,19.0,63,0.00,,,0.00,Wunderground v.1.15,2014-01-06 15:48:00,
2014-01-06 09:54:00,-17.6,-26.1,30.33,WNW,288,14.0,17.0,64,0.00,,,0.00,Wunderground v.1.15,2014-01-06 15:54:00,
2014-01-06 10:00:00,-17.5,-26.0,30.32,WNW,293,13.0,13.0,64,0.00,,,0.00,Wunderground v.1.15,2014-01-06 16:00:00,
2014-01-06 10:06:00,-17.5,-26.0,30.32,WNW,286,14.0,17.0,64,0.00,,,0.00,Wunderground v.1.15,2014-01-06 16:06:00,
2014-01-06 10:12:00,-17.3,-25.8,30.32,WNW,293,14.0,14.0,64,0.00,,,0.00,Wunderground v.1.15,2014-01-06 16:12:00,
2014-01-06 10:18:00,-17.4,-26.2,30.32,West,278,14.0,16.0,63,0.00,,,0.00,Wunderground v.1.15,2014-01-06 16:18:00,
2014-01-06 10:24:00,-17.2,-25.7,30.32,West,277,14.0,17.0,64,0.00,,,0.00,Wunderground v.1.15,2014-01-06 16:24:00,
2014-01-06 10:30:00,-17.1,-25.9,30.32,West,277,14.0,16.0,63,0.00,,,0.00,Wunderground v.1.15,2014-01-06 16:30:00,
2014-01-06 10:35:00,-17.2,-25.7,30.32,WNW,290,14.0,18.0,64,0.00,,,0.00,Wunderground v.1.15,2014-01-06 16:35:00,
2014-01-06 10:42:00,-17.0,-25.5,30.32,West,275,13.0,14.0,64,0.00,,,0.00,Wunderground v.1.15,2014-01-06 16:42:00,
2014-01-06 10:48:00,-16.9,-25.5,30.32,WNW,295,14.0,17.0,64,0.00,,,0.00,Wunderground v.1.15,2014-01-06 16:48:00,
2014-01-06 10:54:00,-16.8,-25.4,30.32,West,277,14.0,17.0,64,0.00,,,0.00,Wunderground v.1.15,2014-01-06 16:54:00,
2014-01-06 11:00:00,-16.8,-25.4,30.32,WNW,300,15.0,15.0,64,0.00,,,0.00,Wunderground v.1.15,2014-01-06 17:00:00,
2014-01-06 11:06:00,-16.5,-25.1,30.32,West,276,13.0,15.0,64,0.00,,,0.00,Wunderground v.1.15,2014-01-06 17:06:00,
2014-01-06 11:12:00,-16.5,-25.4,30.32,West,273,12.0,16.0,63,0.00,,,0.00,Wunderground v.1.15,2014-01-06 17:12:00,
2014-01-06 11:18:00,-16.2,-25.1,30.32,West,281,13.0,16.0,63,0.00,,,0.00,Wunderground v.1.15,2014-01-06 17:18:00,
2014-01-06 11:24:00,-16.2,-25.1,30.31,West,275,13.0,20.0,63,0.00,,,0.00,Wunderground v.1.15,2014-01-06 17:24:00,
2014-01-06 11:30:00,-16.4,-25.0,30.31,WNW,282,15.0,15.0,64,0.00,,,0.00,Wunderground v.1.15,2014-01-06 17:30:00,
2014-01-06 11:36:00,-16.3,-24.9,30.31,West,272,15.0,22.0,64,0.00,,,0.00,Wunderground v.1.15,2014-01-06 17:36:00,
2014-01-06 11:42:00,-16.1,-24.4,30.31,WNW,290,15.0,17.0,65,0.00,,,0.00,Wunderground v.1.15,2014-01-06 17:42:00,
2014-01-06 11:48:00,-16.0,-24.3,30.30,WNW,291,15.0,17.0,65,0.00,,,0.00,Wunderground v.1.15,2014-01-06 17:48:00,
2014-01-06 11:54:00,-15.8,-23.8,30.30,West,281,16.0,21.0,66,0.00,,,0.00,Wunderground v.1.15,2014-01-06 17:54:00,
2014-01-06 12:00:00,-15.7,-23.7,30.30,WNW,284,17.0,17.0,66,0.00,,,0.00,Wunderground v.1.15,2014-01-06 18:00:00,
2014-01-06 12:06:00,-15.5,-23.8,30.30,WNW,295,16.0,18.0,65,0.00,,,0.00,Wunderground v.1.15,2014-01-06 18:06:00,
2014-01-06 12:12:00,-15.3,-23.6,30.30,West,276,14.0,21.0,65,0.00,,,0.00,Wunderground v.1.15,2014-01-06 18:12:00,
2014-01-06 12:18:00,-15.1,-23.4,30.30,WNW,294,13.0,21.0,65,0.00,,,0.00,Wunderground v.1.15,2014-01-06 18:18:00,
2014-01-06 12:24:00,-14.8,-23.2,30.29,WNW,286,13.0,17.0,65,0.00,,,0.00,Wunderground v.1.15,2014-01-06 18:24:00,
2014-01-06 12:30:00,-14.8,-23.4,30.29,West,260,14.0,14.0,64,0.00,,,0.00,Wunderground v.1.15,2014-01-06 18:30:00,
2014-01-06 12:36:00,-14.6,-23.3,30.29,WNW,286,15.0,18.0,64,0.00,,,0.00,Wunderground v.1.15,2014-01-06 18:36:00,
2014-01-06 12:42:00,-14.3,-23.0,30.29,WNW,284,16.0,16.0,64,0.00,,,0.00,Wunderground v.1.15,2014-01-06 18:42:00,
2014-01-06 12:48:00,-14.2,-23.2,30.29,WNW,300,15.0,19.0,63,0.00,,,0.00,Wunderground v.1.15,2014-01-06 18:48:00,
2014-01-06 12:54:00,-13.9,-22.6,30.29,WNW,292,15.0,19.0,64,0.00,,,0.00,Wunderground v.1.15,2014-01-06 18:54:00,
2014-01-06 13:00:00,-13.9,-22.6,30.29,West,281,15.0,16.0,64,0.00,,,0.00,Wunderground v.1.15,2014-01-06 19:00:00,
2014-01-06 13:06:00,-13.6,-22.3,30.29,WNW,285,14.0,17.0,64,0.00,,,0.00,Wunderground v.1.15,2014-01-06 19:06:00,
2014-01-06 13:12:00,-13.3,-22.0,30.29,West,275,13.0,16.0,64,0.00,,,0.00,Wunderground v.1.15,2014-01-06 19:12:00,
2014-01-06 13:18:00,-13.3,-22.0,30.29,WNW,294,14.0,16.0,64,0.00,,,0.00,Wunderground v.1.15,2014-01-06 19:18:00,
2014-01-06 13:24:00,-13.1,-21.8,30.29,WNW,282,14.0,14.0,64,0.00,,,0.00,Wunderground v.1.15,2014-01-06 19:24:00,
2014-01-06 13:30:00,-12.8,-21.8,30.29,West,267,15.0,15.0,63,0.00,,,0.00,Wunderground v.1.15,2014-01-06 19:30:00,
2014-01-06 13:36:00,-12.7,-21.7,30.29,WNW,296,15.0,16.0,63,0.00,,,0.00,Wunderground v.1.15,2014-01-06 19:36:00,
2014-01-06 13:42:00,-12.5,-21.5,30.29,West,268,12.0,13.0,63,0.00,,,0.00,Wunderground v.1.15,2014-01-06 19:42:00,
2014-01-06 13:48:00,-12.5,-21.5,30.29,West,277,13.0,17.0,63,0.00,,,0.00,Wunderground v.1.15,2014-01-06 19:48:00,
2014-01-06 13:54:00,-12.3,-21.4,30.29,West,275,13.0,16.0,63,0.00,,,0.00,Wunderground v.1.15,2014-01-06 19:54:00,
2014-01-06 14:00:00,-12.1,-21.2,30.30,NW,304,13.0,13.0,63,0.00,,,0.00,Wunderground v.1.15,2014-01-06 20:00:00,
2014-01-06 14:06:00,-12.1,-21.2,30.30,WNW,284,15.0,16.0,63,0.00,,,0.00,Wunderground v.1.15,2014-01-06 20:06:00,
2014-01-06 14:12:00,-12.1,-20.9,30.30,WSW,254,15.0,15.0,64,0.00,,,0.00,Wunderground v.1.15,2014-01-06 20:12:00,
2014-01-06 14:18:00,-12.0,-20.8,30.30,West,279,14.0,15.0,64,0.00,,,0.00,Wunderground v.1.15,2014-01-06 20:18:00,
2014-01-06 14:24:00,-12.0,-20.8,30.30,WNW,282,15.0,22.0,64,0.00,,,0.00,Wunderground v.1.15,2014-01-06 20:24:00,
2014-01-06 14:30:00,-11.9,-21.0,30.30,West,277,16.0,17.0,63,0.00,,,0.00,Wunderground v.1.15,2014-01-06 20:30:00,
2014-01-06 14:36:00,-11.8,-20.6,30.30,West,276,16.0,18.0,64,0.00,,,0.00,Wunderground v.1.15,2014-01-06 20:36:00,
2014-01-06 14:42:00,-11.7,-20.5,30.30,West,270,16.0,17.0,64,0.00,,,0.00,Wunderground v.1.15,2014-01-06 20:42:00,
2014-01-06 14:48:00,-11.6,-20.4,30.30,WNW,300,14.0,17.0,64,0.00,,,0.00,Wunderground v.1.15,2014-01-06 20:48:00,
2014-01-06 14:54:00,-11.5,-20.3,30.31,WNW,286,14.0,14.0,64,0.00,,,0.00,Wunderground v.1.15,2014-01-06 20:54:00,
2014-01-06 15:00:00,-11.5,-20.6,30.31,West,274,15.0,18.0,63,0.00,,,0.00,Wunderground v.1.15,2014-01-06 21:00:00,
2014-01-06 15:06:00,-11.4,-20.5,30.31,West,268,14.0,18.0,63,0.00,,,0.00,Wunderground v.1.15,2014-01-06 21:06:00,
2014-01-06 15:12:00,-11.2,-20.6,30.31,West,273,13.0,18.0,62,0.00,,,0.00,Wunderground v.1.15,2014-01-06 21:12:00,
2014-01-06 15:17:00,-11.3,-20.4,30.31,West,274,15.0,18.0,63,0.00,,,0.00,Wunderground v.1.15,2014-01-06 21:17:00,
2014-01-06 15:24:00,-11.1,-20.2,30.31,WSW,257,14.0,16.0,63,0.00,,,0.00,Wunderground v.1.15,2014-01-06 21:24:00,
2014-01-06 15:30:00,-11.2,-20.6,30.31,West,277,13.0,14.0,62,0.00,,,0.00,Wunderground v.1.15,2014-01-06 21:30:00,
2014-01-06 15:36:00,-11.4,-20.8,30.31,West,273,15.0,16.0,62,0.00,,,0.00,Wunderground v.1.15,2014-01-06 21:36:00,
2014-01-06 15:42:00,-11.3,-20.7,30.32,WNW,287,15.0,15.0,62,0.00,,,0.00,Wunderground v.1.15,2014-01-06 21:42:00,
2014-01-06 15:48:00,-11.5,-20.9,30.32,West,265,12.0,15.0,62,0.00,,,0.00,Wunderground v.1.15,2014-01-06 21:48:00,
2014-01-06 15:54:00,-11.4,-20.8,30.32,West,281,13.0,15.0,62,0.00,,,0.00,Wunderground v.1.15,2014-01-06 21:54:00,
2014-01-06 16:00:00,-11.3,-20.7,30.32,West,264,14.0,20.0,62,0.00,,,0.00,Wunderground v.1.15,2014-01-06 22:00:00,
2014-01-06 16:06:00,-11.3,-20.7,30.32,West,264,14.0,20.0,62,0.00,,,0.00,Wunderground v.1.15,2014-01-06 22:06:00,
2014-01-06 16:12:00,-11.5,-20.9,30.32,WNW,288,14.0,14.0,62,0.00,,,0.00,Wunderground v.1.15,2014-01-06 22:12:00,
2014-01-06 16:18:00,-11.4,-20.8,30.32,WNW,284,12.0,14.0,62,0.00,,,0.00,Wunderground v.1.15,2014-01-06 22:18:00,
2014-01-06 16:23:00,-11.5,-20.9,30.32,West,275,10.0,13.0,62,0.00,,,0.00,Wunderground v.1.15,2014-01-06 22:23:00,
2014-01-06 16:30:00,-11.5,-20.9,30.32,West,274,10.0,10.0,62,0.00,,,0.00,Wunderground v.1.15,2014-01-06 22:30:00,
2014-01-06 16:36:00,-11.5,-20.9,30.32,WNW,282,11.0,14.0,62,0.00,,,0.00,Wunderground v.1.15,2014-01-06 22:36:00,
2014-01-06 16:42:00,-11.6,-21.0,30.32,West,270,12.0,12.0,62,0.00,,,0.00,Wunderground v.1.15,2014-01-06 22:42:00,
2014-01-06 16:48:00,-11.6,-20.7,30.32,West,273,11.0,12.0,63,0.00,,,0.00,Wunderground v.1.15,2014-01-06 22:48:00,
2014-01-06 16:54:00,-11.6,-20.7,30.32,WSW,250,10.0,12.0,63,0.00,,,0.00,Wunderground v.1.15,2014-01-06 22:54:00,
2014-01-06 17:00:00,-11.6,-20.7,30.32,West,267,9.0,9.0,63,0.00,,,0.00,Wunderground v.1.15,2014-01-06 23:00:00,
2014-01-06 17:06:00,-11.6,-20.7,30.32,SW,235,9.0,11.0,63,0.00,,,0.00,Wunderground v.1.15,2014-01-06 23:06:00,
2014-01-06 17:12:00,-11.7,-20.8,30.32,West,278,9.0,11.0,63,0.00,,,0.00,Wunderground v.1.15,2014-01-06 23:12:00,
2014-01-06 17:18:00,-11.6,-20.7,30.32,West,275,11.0,13.0,63,0.00,,,0.00,Wunderground v.1.15,2014-01-06 23:18:00,
2014-01-06 17:24:00,-11.5,-20.6,30.32,WSW,244,12.0,14.0,63,0.00,,,0.00,Wunderground v.1.15,2014-01-06 23:24:00,
2014-01-06 17:30:00,-11.6,-20.7,30.33,West,281,11.0,11.0,63,0.00,,,0.00,Wunderground v.1.15,2014-01-06 23:30:00,
2014-01-06 17:36:00,-11.6,-20.7,30.33,WSW,256,10.0,14.0,63,0.00,,,0.00,Wunderground v.1.15,2014-01-06 23:36:00,
2014-01-06 17:42:00,-11.6,-20.4,30.33,WSW,238,10.0,12.0,64,0.00,,,0.00,Wunderground v.1.15,2014-01-06 23:42:00,
2014-01-06 17:48:00,-11.7,-20.5,30.33,WNW,295,9.0,12.0,64,0.00,,,0.00,Wunderground v.1.15,2014-01-06 23:48:00,
2014-01-06 17:54:00,-11.6,-20.4,30.33,West,271,11.0,12.0,64,0.00,,,0.00,Wunderground v.1.15,2014-01-06 23:54:00,
2014-01-06 18:00:00,-11.5,-20.3,30.33,West,269,13.0,13.0,64,0.00,,,0.00,Wunderground v.1.15,2014-01-07 00:00:00,
2014-01-06 18:06:00,-11.5,-20.3,30.33,WNW,291,12.0,13.0,64,0.00,,,0.00,Wunderground v.1.15,2014-01-07 00:06:00,
2014-01-06 18:12:00,-11.6,-20.4,30.33,West,272,12.0,15.0,64,0.00,,,0.00,Wunderground v.1.15,2014-01-07 00:12:00,
2014-01-06 18:18:00,-11.5,-20.3,30.33,WSW,246,13.0,15.0,64,0.00,,,0.00,Wunderground v.1.15,2014-01-07 00:18:00,
2014-01-06 18:24:00,-11.5,-20.3,30.33,WSW,255,13.0,13.0,64,0.00,,,0.00,Wunderground v.1.15,2014-01-07 00:24:00,
2014-01-06 18:30:00,-11.4,-20.2,30.33,West,268,13.0,13.0,64,0.00,,,0.00,Wunderground v.1.15,2014-01-07 00:30:00,
2014-01-06 18:36:00,-11.5,-20.0,30.33,West,265,12.0,13.0,65,0.00,,,0.00,Wunderground v.1.15,2014-01-07 00:36:00,
2014-01-06 18:42:00,-11.6,-20.1,30.33,West,271,9.0,10.0,65,0.00,,,0.00,Wunderground v.1.15,2014-01-07 00:42:00,
2014-01-06 18:47:00,-11.6,-20.1,30.34,West,277,9.0,12.0,65,0.00,,,0.00,Wunderground v.1.15,2014-01-07 00:47:00,
2014-01-06 18:54:00,-11.6,-20.1,30.34,West,275,10.0,11.0,65,0.00,,,0.00,Wunderground v.1.15,2014-01-07 00:54:00,
2014-01-06 19:00:00,-11.6,-20.1,30.34,WSW,252,8.0,8.0,65,0.00,,,0.00,Wunderground v.1.15,2014-01-07 01:00:00,
2014-01-06 19:06:00,-11.7,-20.2,30.34,West,269,8.0,11.0,65,0.00,,,0.00,Wunderground v.1.15,2014-01-07 01:06:00,
2014-01-06 19:12:00,-11.6,-20.1,30.34,West,263,8.0,10.0,65,0.00,,,0.00,Wunderground v.1.15,2014-01-07 01:12:00,
2014-01-06 19:18:00,-11.7,-20.2,30.34,WSW,254,8.0,10.0,65,0.00,,,0.00,Wunderground v.1.15,2014-01-07 01:18:00,
2014-01-06 19:24:00,-11.7,-20.2,30.34,West,271,7.0,10.0,65,0.00,,,0.00,Wunderground v.1.15,2014-01-07 01:24:00,
2014-01-06 19:30:00,-11.7,-20.2,30.34,West,267,7.0,7.0,65,0.00,,,0.00,Wunderground v.1.15,2014-01-07 01:30:00,
2014-01-06 19:36:00,-11.7,-20.2,30.34,NW,311,7.0,10.0,65,0.00,,,0.00,Wunderground v.1.15,2014-01-07 01:36:00,
2014-01-06 19:42:00,-11.8,-20.3,30.34,WSW,257,7.0,7.0,65,0.00,,,0.00,Wunderground v.1.15,2014-01-07 01:42:00,
2014-01-06 19:48:00,-11.7,-20.2,30.34,West,276,7.0,9.0,65,0.00,,,0.00,Wunderground v.1.15,2014-01-07 01:48:00,
2014-01-06 19:54:00,-11.7,-20.2,30.34,West,269,8.0,10.0,65,0.00,,,0.00,Wunderground v.1.15,2014-01-07 01:54:00,
2014-01-06 20:00:00,-11.7,-19.9,30.34,West,271,10.0,12.0,66,0.00,,,0.00,Wunderground v.1.15,2014-01-07 02:00:00,
2014-01-06 20:06:00,-11.6,-19.8,30.34,West,259,10.0,12.0,66,0.00,,,0.00,Wunderground v.1.15,2014-01-07 02:06:00,
2014-01-06 20:12:00,-11.6,-19.8,30.33,West,271,9.0,10.0,66,0.00,,,0.00,Wunderground v.1.15,2014-01-07 02:12:00,
2014-01-06 20:18:00,-11.6,-19.8,30.33,West,279,8.0,10.0,66,0.00,,,0.00,Wunderground v.1.15,2014-01-07 02:18:00,
2014-01-06 20:24:00,-11.6,-19.8,30.33,West,271,8.0,8.0,66,0.00,,,0.00,Wunderground v.1.15,2014-01-07 02:24:00,
2014-01-06 20:30:00,-11.6,-19.8,30.33,West,280,8.0,9.0,66,0.00,,,0.00,Wunderground v.1.15,2014-01-07 02:30:00,
2014-01-06 20:36:00,-11.7,-19.9,30.33,West,267,8.0,10.0,66,0.00,,,0.00,Wunderground v.1.15,2014-01-07 02:36:00,
2014-01-06 20:42:00,-11.6,-19.8,30.33,West,266,9.0,14.0,66,0.00,,,0.00,Wunderground v.1.15,2014-01-07 02:42:00,
2014-01-06 20:48:00,-11.5,-19.7,30.33,West,279,10.0,14.0,66,0.00,,,0.00,Wunderground v.1.15,2014-01-07 02:48:00,
2014-01-06 20:54:00,-11.6,-19.8,30.33,West,267,10.0,11.0,66,0.00,,,0.00,Wunderground v.1.15,2014-01-07 02:54:00,
2014-01-06 21:00:00,-11.6,-19.8,30.33,West,271,10.0,10.0,66,0.00,,,0.00,Wunderground v.1.15,2014-01-07 03:00:00,
2014-01-06 21:06:00,-11.7,-19.9,30.33,West,274,9.0,10.0,66,0.00,,,0.00,Wunderground v.1.15,2014-01-07 03:06:00,
2014-01-06 21:12:00,-11.6,-19.8,30.33,West,272,10.0,10.0,66,0.00,,,0.00,Wunderground v.1.15,2014-01-07 03:12:00,
2014-01-06 21:18:00,-11.5,-19.4,30.33,West,270,9.0,10.0,67,0.00,,,0.00,Wunderground v.1.15,2014-01-07 03:18:00,
2014-01-06 21:24:00,-11.5,-19.7,30.32,WSW,248,8.0,9.0,66,0.00,,,0.00,Wunderground v.1.15,2014-01-07 03:24:00,
2014-01-06 21:30:00,-11.5,-19.7,30.32,West,270,9.0,9.0,66,0.00,,,0.00,Wunderground v.1.15,2014-01-07 03:30:00,
2014-01-06 21:36:00,-11.4,-19.6,30.32,West,273,11.0,11.0,66,0.00,,,0.00,Wunderground v.1.15,2014-01-07 03:36:00,
2014-01-06 21:42:00,-11.5,-19.7,30.32,West,267,11.0,11.0,66,0.00,,,0.00,Wunderground v.1.15,2014-01-07 03:42:00,
2014-01-06 21:48:00,-11.6,-19.8,30.32,West,266,9.0,11.0,66,0.00,,,0.00,Wunderground v.1.15,2014-01-07 03:48:00,
2014-01-06 21:53:00,-11.5,-19.7,30.32,West,277,8.0,9.0,66,0.00,,,0.00,Wunderground v.1.15,2014-01-07 03:53:00,
2014-01-06 22:00:00,-11.3,-19.5,30.32,West,263,8.0,9.0,66,0.00,,,0.00,Wunderground v.1.15,2014-01-07 04:00:00,
2014-01-06 22:06:00,-11.3,-19.5,30.32,West,267,8.0,11.0,66,0.00,,,0.00,Wunderground v.1.15,2014-01-07 04:06:00,
2014-01-06 22:12:00,-11.3,-19.5,30.32,West,271,8.0,8.0,66,0.00,,,0.00,Wunderground v.1.15,2014-01-07 04:12:00,
2014-01-06 22:18:00,-11.3,-19.5,30.32,West,277,8.0,11.0,66,0.00,,,0.00,Wunderground v.1.15,2014-01-07 04:18:00,
2014-01-06 22:24:00,-11.4,-19.6,30.32,WSW,253,7.0,8.0,66,0.00,,,0.00,Wunderground v.1.15,2014-01-07 04:24:00,
2014-01-06 22:30:00,-11.5,-19.7,30.33,WSW,257,7.0,7.0,66,0.00,,,0.00,Wunderground v.1.15,2014-01-07 04:30:00,
2014-01-06 22:36:00,-11.4,-19.3,30.33,West,263,8.0,9.0,67,0.00,,,0.00,Wunderground v.1.15,2014-01-07 04:36:00,
2014-01-06 22:42:00,-11.4,-19.3,30.33,West,276,7.0,9.0,67,0.00,,,0.00,Wunderground v.1.15,2014-01-07 04:42:00,
2014-01-06 22:48:00,-11.4,-19.3,30.33,West,272,7.0,9.0,67,0.00,,,0.00,Wunderground v.1.15,2014-01-07 04:48:00,
2014-01-06 22:54:00,-11.5,-19.4,30.32,WSW,252,6.0,10.0,67,0.00,,,0.00,Wunderground v.1.15,2014-01-07 04:54:00,
2014-01-06 23:00:00,-11.5,-19.4,30.33,West,272,6.0,7.0,67,0.00,,,0.00,Wunderground v.1.15,2014-01-07 05:00:00,
2014-01-06 23:02:00,-11.6,-19.5,30.33,WSW,257,7.0,7.0,67,0.00,,,0.00,Wunderground v.1.15,2014-01-07 05:02:00,
2014-01-06 23:04:00,-11.6,-19.5,30.33,West,277,6.0,7.0,67,0.00,,,0.00,Wunderground v.1.15,2014-01-07 05:04:00,
2014-01-06 23:06:00,-11.6,-19.5,30.33,WSW,248,6.0,7.0,67,0.00,,,0.00,Wunderground v.1.15,2014-01-07 05:06:00,
2014-01-06 23:08:00,-11.6,-19.5,30.32,West,261,6.0,7.0,67,0.00,,,0.00,Wunderground v.1.15,2014-01-07 05:08:00,
2014-01-06 23:12:00,-11.6,-19.5,30.33,West,271,7.0,9.0,67,0.00,,,0.00,Wunderground v.1.15,2014-01-07 05:12:00,
2014-01-06 23:16:00,-11.5,-19.4,30.32,West,273,8.0,14.0,67,0.00,,,0.00,Wunderground v.1.15,2014-01-07 05:16:00,
2014-01-06 23:22:00,-11.3,-19.2,30.32,West,265,9.0,9.0,67,0.00,,,0.00,Wunderground v.1.15,2014-01-07 05:22:00,
2014-01-06 23:28:00,-11.5,-19.4,30.33,West,264,9.0,13.0,67,0.00,,,0.00,Wunderground v.1.15,2014-01-07 05:28:00,
2014-01-06 23:34:00,-11.6,-19.5,30.32,WNW,286,8.0,9.0,67,0.00,,,0.00,Wunderground v.1.15,2014-01-07 05:34:00,
2014-01-06 23:40:00,-11.5,-19.4,30.33,West,267,8.0,8.0,67,0.00,,,0.00,Wunderground v.1.15,2014-01-07 05:40:00,
2014-01-06 23:46:00,-11.4,-19.3,30.32,West,272,7.0,8.0,67,0.00,,,0.00,Wunderground v.1.15,2014-01-07 05:46:00,
2014-01-06 23:52:00,-11.3,-19.2,30.32,WSW,248,7.0,9.0,67,0.00,,,0.00,Wunderground v.1.15,2014-01-07 05:52:00,
2014-01-06 23:58:00,-11.3,-19.2,30.32,WNW,287,7.0,9.0,67,0.00,,,0.00,Wunderground v.1.15,2014-01-07 05:58:00,